sensor_id;sensor_type;location;lat;lon;timestamp;pressure;altitude;pressure_sealevel;temperature;humidity
42125;BME280;27787;44.594;11.046;2023-05-10T00:02:30;100613.25;;;18.37;75.76
42125;BME280;27787;44.594;11.046;2023-05-10T00:05:14;100603.50;;;18.36;76.55
42125;BME280;27787;44.594;11.046;2023-05-10T00:07:58;100601.69;;;18.37;77.46
42125;BME280;27787;44.594;11.046;2023-05-10T00:10:43;100599.91;;;18.36;78.22
42125;BME280;27787;44.594;11.046;2023-05-10T00:13:27;100598.16;;;18.36;79.45
42125;BME280;27787;44.594;11.046;2023-05-10T00:16:12;100595.50;;;18.35;79.58
42125;BME280;27787;44.594;11.046;2023-05-10T00:18:57;100600.97;;;18.30;80.68
42125;BME280;27787;44.594;11.046;2023-05-10T00:21:41;100602.72;;;18.31;81.15
42125;BME280;27787;44.594;11.046;2023-05-10T00:24:25;100593.81;;;18.31;82.42
42125;BME280;27787;44.594;11.046;2023-05-10T00:27:09;100592.94;;;18.30;82.49
42125;BME280;27787;44.594;11.046;2023-05-10T00:29:53;100593.97;;;18.26;83.00
42125;BME280;27787;44.594;11.046;2023-05-10T00:32:37;100588.72;;;18.23;82.67
42125;BME280;27787;44.594;11.046;2023-05-10T00:35:22;100585.19;;;18.21;83.10
42125;BME280;27787;44.594;11.046;2023-05-10T00:38:06;100583.44;;;18.20;82.87
42125;BME280;27787;44.594;11.046;2023-05-10T00:40:50;100576.41;;;18.16;83.19
42125;BME280;27787;44.594;11.046;2023-05-10T00:43:43;100577.38;;;18.13;83.67
42125;BME280;27787;44.594;11.046;2023-05-10T00:46:28;100576.56;;;18.10;83.79
42125;BME280;27787;44.594;11.046;2023-05-10T00:49:13;100581.94;;;18.08;83.84
42125;BME280;27787;44.594;11.046;2023-05-10T00:51:57;100572.28;;;18.04;84.29
42125;BME280;27787;44.594;11.046;2023-05-10T00:54:42;100577.69;;;18.01;84.80
42125;BME280;27787;44.594;11.046;2023-05-10T00:57:27;100579.53;;;17.99;85.14
42125;BME280;27787;44.594;11.046;2023-05-10T01:00:12;100576.91;;;17.97;85.22
42125;BME280;27787;44.594;11.046;2023-05-10T01:02:57;100579.59;;;17.96;85.59
42125;BME280;27787;44.594;11.046;2023-05-10T01:05:42;100581.38;;;17.95;86.38
42125;BME280;27787;44.594;11.046;2023-05-10T01:08:26;100567.16;;;17.95;86.74
42125;BME280;27787;44.594;11.046;2023-05-10T01:11:11;100566.34;;;17.93;87.34
42125;BME280;27787;44.594;11.046;2023-05-10T01:13:57;100565.50;;;17.91;87.61
42125;BME280;27787;44.594;11.046;2023-05-10T01:16:41;100572.75;;;17.86;87.92
42125;BME280;27787;44.594;11.046;2023-05-10T01:19:28;100570.13;;;17.84;88.63
42125;BME280;27787;44.594;11.046;2023-05-10T01:26:31;100570.13;;;17.84;89.81
42125;BME280;27787;44.594;11.046;2023-05-10T01:29:14;100569.31;;;17.81;90.25
42125;BME280;27787;44.594;11.046;2023-05-10T01:35:17;100575.69;;;17.75;91.39
42125;BME280;27787;44.594;11.046;2023-05-10T01:39:11;100564.09;;;17.76;91.82
42125;BME280;27787;44.594;11.046;2023-05-10T01:44:58;100565.03;;;17.75;92.71
42125;BME280;27787;44.594;11.046;2023-05-10T01:47:48;100565.03;;;17.75;92.91
42125;BME280;27787;44.594;11.046;2023-05-10T01:50:36;100565.03;;;17.75;93.25
42125;BME280;27787;44.594;11.046;2023-05-10T01:53:23;100574.91;;;17.72;92.90
42125;BME280;27787;44.594;11.046;2023-05-10T01:56:08;100577.59;;;17.70;92.61
42125;BME280;27787;44.594;11.046;2023-05-10T01:58:55;100579.50;;;17.63;92.76
42125;BME280;27787;44.594;11.046;2023-05-10T02:01:40;100578.03;;;17.52;93.42
42125;BME280;27787;44.594;11.046;2023-05-10T02:04:26;100576.63;;;17.35;94.67
42125;BME280;27787;44.594;11.046;2023-05-10T02:07:11;100574.31;;;17.20;95.33
42125;BME280;27787;44.594;11.046;2023-05-10T02:09:56;100589.56;;;17.14;96.16
42125;BME280;27787;44.594;11.046;2023-05-10T02:12:45;100586.94;;;17.12;97.17
42125;BME280;27787;44.594;11.046;2023-05-10T02:15:30;100589.69;;;17.09;97.38
42125;BME280;27787;44.594;11.046;2023-05-10T02:18:15;100589.81;;;17.03;97.29
42125;BME280;27787;44.594;11.046;2023-05-10T02:21:01;100598.97;;;16.90;98.63
42125;BME280;27787;44.594;11.046;2023-05-10T02:23:48;100599.44;;;16.67;99.67
42125;BME280;27787;44.594;11.046;2023-05-10T02:26:35;100597.91;;;16.55;100.00
42125;BME280;27787;44.594;11.046;2023-05-10T02:29:20;100590.03;;;16.47;100.00
42125;BME280;27787;44.594;11.046;2023-05-10T02:32:05;100585.50;;;16.54;100.00
42125;BME280;27787;44.594;11.046;2023-05-10T02:34:50;100587.91;;;16.65;100.00
42125;BME280;27787;44.594;11.046;2023-05-10T02:37:37;100589.44;;;16.78;100.00
42125;BME280;27787;44.594;11.046;2023-05-10T02:40:22;100577.66;;;16.90;100.00
42125;BME280;27787;44.594;11.046;2023-05-10T02:43:12;100582.84;;;16.97;98.93
42125;BME280;27787;44.594;11.046;2023-05-10T02:45:57;100590.75;;;17.00;97.08
42125;BME280;27787;44.594;11.046;2023-05-10T02:51:56;100588.66;;;16.74;97.61
42125;BME280;27787;44.594;11.046;2023-05-10T02:54:48;100593.25;;;16.65;99.27
42125;BME280;27787;44.594;11.046;2023-05-10T02:57:34;100592.50;;;16.58;99.70
42125;BME280;27787;44.594;11.046;2023-05-10T03:00:21;100594.50;;;16.47;99.03
42125;BME280;27787;44.594;11.046;2023-05-10T03:03:05;100603.69;;;16.31;100.00
42125;BME280;27787;44.594;11.046;2023-05-10T03:05:51;100584.28;;;16.24;100.00
42125;BME280;27787;44.594;11.046;2023-05-10T03:08:39;100584.38;;;16.19;100.00
42125;BME280;27787;44.594;11.046;2023-05-10T03:11:43;100585.41;;;16.11;100.00
42125;BME280;27787;44.594;11.046;2023-05-10T03:20:50;100575.56;;;16.14;100.00
42125;BME280;27787;44.594;11.046;2023-05-10T03:23:40;100563.19;;;16.12;100.00
42125;BME280;27787;44.594;11.046;2023-05-10T03:26:26;100572.81;;;16.20;100.00
42125;BME280;27787;44.594;11.046;2023-05-10T03:29:18;100569.03;;;16.32;100.00
42125;BME280;27787;44.594;11.046;2023-05-10T03:32:03;100570.00;;;16.27;100.00
42125;BME280;27787;44.594;11.046;2023-05-10T03:34:49;100569.09;;;16.29;100.00
42125;BME280;27787;44.594;11.046;2023-05-10T03:37:33;100572.63;;;16.31;100.00
42125;BME280;27787;44.594;11.046;2023-05-10T03:40:18;100559.34;;;16.27;100.00
42125;BME280;27787;44.594;11.046;2023-05-10T03:43:02;100562.84;;;16.32;100.00
42125;BME280;27787;44.594;11.046;2023-05-10T03:45:47;100564.47;;;16.37;100.00
42125;BME280;27787;44.594;11.046;2023-05-10T03:48:32;100568.00;;;16.39;100.00
42125;BME280;27787;44.594;11.046;2023-05-10T03:51:16;100563.53;;;16.40;100.00
42125;BME280;27787;44.594;11.046;2023-05-10T03:54:00;100558.22;;;16.40;100.00
42125;BME280;27787;44.594;11.046;2023-05-10T03:56:46;100556.34;;;16.45;100.00
42125;BME280;27787;44.594;11.046;2023-05-10T03:59:33;100552.78;;;16.46;100.00
42125;BME280;27787;44.594;11.046;2023-05-10T04:02:17;100558.03;;;16.49;100.00
42125;BME280;27787;44.594;11.046;2023-05-10T04:05:01;100557.13;;;16.50;100.00
42125;BME280;27787;44.594;11.046;2023-05-10T04:07:46;100561.53;;;16.51;100.00
42125;BME280;27787;44.594;11.046;2023-05-10T04:10:33;100551.72;;;16.53;100.00
42125;BME280;27787;44.594;11.046;2023-05-10T04:13:17;100562.38;;;16.53;100.00
42125;BME280;27787;44.594;11.046;2023-05-10T04:16:03;100556.19;;;16.52;100.00
42125;BME280;27787;44.594;11.046;2023-05-10T04:18:47;100553.59;;;16.49;100.00
42125;BME280;27787;44.594;11.046;2023-05-10T04:21:32;100552.75;;;16.47;100.00
42125;BME280;27787;44.594;11.046;2023-05-10T04:24:16;100550.13;;;16.46;100.00
42125;BME280;27787;44.594;11.046;2023-05-10T04:27:00;100548.38;;;16.45;100.00
42125;BME280;27787;44.594;11.046;2023-05-10T04:29:44;100545.72;;;16.43;100.00
42125;BME280;27787;44.594;11.046;2023-05-10T04:32:29;100552.84;;;16.43;100.00
42125;BME280;27787;44.594;11.046;2023-05-10T04:35:14;100538.63;;;16.44;99.79
42125;BME280;27787;44.594;11.046;2023-05-10T04:37:58;100546.59;;;16.44;100.00
42125;BME280;27787;44.594;11.046;2023-05-10T04:40:42;100541.25;;;16.45;100.00
42125;BME280;27787;44.594;11.046;2023-05-10T04:43:27;100541.28;;;16.44;100.00
42125;BME280;27787;44.594;11.046;2023-05-10T04:46:11;100537.69;;;16.45;100.00
42125;BME280;27787;44.594;11.046;2023-05-10T04:48:55;100532.38;;;16.45;100.00
42125;BME280;27787;44.594;11.046;2023-05-10T04:51:39;100547.50;;;16.44;100.00
42125;BME280;27787;44.594;11.046;2023-05-10T04:54:24;100531.50;;;16.44;100.00
42125;BME280;27787;44.594;11.046;2023-05-10T04:57:08;100536.88;;;16.43;100.00
42125;BME280;27787;44.594;11.046;2023-05-10T04:59:52;100536.94;;;16.38;99.50
42125;BME280;27787;44.594;11.046;2023-05-10T05:02:36;100543.16;;;16.37;99.30
42125;BME280;27787;44.594;11.046;2023-05-10T05:05:21;100543.22;;;16.36;99.57
42125;BME280;27787;44.594;11.046;2023-05-10T05:08:05;100537.00;;;16.35;99.87
42125;BME280;27787;44.594;11.046;2023-05-10T05:10:49;100541.50;;;16.33;99.36
42125;BME280;27787;44.594;11.046;2023-05-10T05:13:34;100543.31;;;16.31;98.92
42125;BME280;27787;44.594;11.046;2023-05-10T05:16:19;100546.91;;;16.29;98.80
42125;BME280;27787;44.594;11.046;2023-05-10T05:19:03;100543.38;;;16.27;99.10
42125;BME280;27787;44.594;11.046;2023-05-10T05:21:47;100538.06;;;16.27;99.33
42125;BME280;27787;44.594;11.046;2023-05-10T05:24:35;100540.72;;;16.27;99.54
42125;BME280;27787;44.594;11.046;2023-05-10T05:27:21;100547.81;;;16.26;99.86
42125;BME280;27787;44.594;11.046;2023-05-10T05:30:08;100536.38;;;16.22;99.87
42125;BME280;27787;44.594;11.046;2023-05-10T05:32:52;100545.22;;;16.23;100.00
42125;BME280;27787;44.594;11.046;2023-05-10T05:35:36;100537.19;;;16.26;99.32
42125;BME280;27787;44.594;11.046;2023-05-10T05:38:20;100546.94;;;16.26;99.41
42125;BME280;27787;44.594;11.046;2023-05-10T05:41:04;100547.75;;;16.31;99.59
42125;BME280;27787;44.594;11.046;2023-05-10T05:43:49;100541.47;;;16.35;99.43
42125;BME280;27787;44.594;11.046;2023-05-10T05:46:33;100539.66;;;16.35;99.06
42125;BME280;27787;44.594;11.046;2023-05-10T05:49:17;100536.97;;;16.37;99.18
42125;BME280;27787;44.594;11.046;2023-05-10T05:52:02;100532.59;;;16.34;99.02
42125;BME280;27787;44.594;11.046;2023-05-10T05:54:48;100545.03;;;16.34;99.02
42125;BME280;27787;44.594;11.046;2023-05-10T05:57:33;100540.53;;;16.36;99.14
42125;BME280;27787;44.594;11.046;2023-05-10T06:00:17;100544.00;;;16.39;98.64
42125;BME280;27787;44.594;11.046;2023-05-10T06:03:02;100548.50;;;16.37;98.38
42125;BME280;27787;44.594;11.046;2023-05-10T06:05:47;100549.41;;;16.36;98.86
42125;BME280;27787;44.594;11.046;2023-05-10T06:08:32;100542.25;;;16.38;98.94
42125;BME280;27787;44.594;11.046;2023-05-10T06:11:17;100544.88;;;16.40;99.11
42125;BME280;27787;44.594;11.046;2023-05-10T06:14:02;100549.25;;;16.45;99.94
42125;BME280;27787;44.594;11.046;2023-05-10T06:16:51;100549.72;;;16.67;100.00
42125;BME280;27787;44.594;11.046;2023-05-10T06:19:35;100548.53;;;16.80;99.01
42125;BME280;27787;44.594;11.046;2023-05-10T06:22:20;100544.38;;;17.07;99.33
42125;BME280;27787;44.594;11.046;2023-05-10T06:25:07;100540.59;;;17.16;95.83
42125;BME280;27787;44.594;11.046;2023-05-10T06:27:52;100541.44;;;17.18;94.91
42125;BME280;27787;44.594;11.046;2023-05-10T06:30:41;100551.19;;;17.21;95.75
42125;BME280;27787;44.594;11.046;2023-05-10T06:33:24;100548.41;;;17.25;95.28
42125;BME280;27787;44.594;11.046;2023-05-10T06:36:09;100542.19;;;17.25;95.12
42125;BME280;27787;44.594;11.046;2023-05-10T06:38:53;100545.63;;;17.30;95.15
42125;BME280;27787;44.594;11.046;2023-05-10T06:41:38;100545.63;;;17.30;94.42
42125;BME280;27787;44.594;11.046;2023-05-10T06:44:22;100545.69;;;17.27;94.29
42125;BME280;27787;44.594;11.046;2023-05-10T06:47:05;100555.75;;;17.16;93.61
42125;BME280;27787;44.594;11.046;2023-05-10T06:49:50;100554.09;;;17.10;95.21
42125;BME280;27787;44.594;11.046;2023-05-10T06:52:34;100553.34;;;17.03;95.81
42125;BME280;27787;44.594;11.046;2023-05-10T06:55:19;100547.91;;;17.09;96.26
42125;BME280;27787;44.594;11.046;2023-05-10T06:58:03;100554.09;;;17.10;95.25
42125;BME280;27787;44.594;11.046;2023-05-10T07:00:47;100548.78;;;17.10;96.36
42125;BME280;27787;44.594;11.046;2023-05-10T07:03:33;100549.72;;;17.07;94.96
42125;BME280;27787;44.594;11.046;2023-05-10T07:06:18;100544.38;;;17.07;96.61
42125;BME280;27787;44.594;11.046;2023-05-10T07:09:02;100550.47;;;17.13;95.89
42125;BME280;27787;44.594;11.046;2023-05-10T07:11:46;100556.66;;;17.15;94.73
42125;BME280;27787;44.594;11.046;2023-05-10T07:14:30;100549.69;;;17.09;94.64
42125;BME280;27787;44.594;11.046;2023-05-10T07:17:14;100548.81;;;17.08;94.91
42125;BME280;27787;44.594;11.046;2023-05-10T07:19:59;100551.31;;;17.15;94.46
42125;BME280;27787;44.594;11.046;2023-05-10T07:22:44;100553.03;;;17.17;93.97
42125;BME280;27787;44.594;11.046;2023-05-10T07:25:29;100551.31;;;17.15;93.61
42125;BME280;27787;44.594;11.046;2023-05-10T07:28:14;100553.06;;;17.16;94.33
42125;BME280;27787;44.594;11.046;2023-05-10T07:30:59;100557.50;;;17.17;94.01
42125;BME280;27787;44.594;11.046;2023-05-10T07:33:43;100557.41;;;17.21;93.47
42125;BME280;27787;44.594;11.046;2023-05-10T07:36:29;100554.66;;;17.24;93.05
42125;BME280;27787;44.594;11.046;2023-05-10T07:39:13;100550.06;;;17.29;93.34
42125;BME280;27787;44.594;11.046;2023-05-10T07:41:57;100560.72;;;17.31;92.86
42125;BME280;27787;44.594;11.046;2023-05-10T07:44:42;100558.00;;;17.34;92.79
42125;BME280;27787;44.594;11.046;2023-05-10T07:47:27;100551.78;;;17.33;92.35
42125;BME280;27787;44.594;11.046;2023-05-10T07:50:11;100552.63;;;17.35;92.15
42125;BME280;27787;44.594;11.046;2023-05-10T07:52:55;100555.38;;;17.31;92.25
42125;BME280;27787;44.594;11.046;2023-05-10T07:55:39;100560.84;;;17.26;92.95
42125;BME280;27787;44.594;11.046;2023-05-10T07:58:24;100566.91;;;17.33;92.20
42125;BME280;27787;44.594;11.046;2023-05-10T08:01:08;100570.66;;;17.24;91.25
42125;BME280;27787;44.594;11.046;2023-05-10T08:03:52;100564.00;;;17.03;94.14
42125;BME280;27787;44.594;11.046;2023-05-10T08:06:37;100555.38;;;16.94;94.67
42125;BME280;27787;44.594;11.046;2023-05-10T08:09:21;100563.41;;;16.91;93.27
42125;BME280;27787;44.594;11.046;2023-05-10T08:12:07;100563.66;;;16.78;93.31
42125;BME280;27787;44.594;11.046;2023-05-10T08:14:52;100570.97;;;16.70;94.85
42125;BME280;27787;44.594;11.046;2023-05-10T08:17:36;100570.03;;;16.73;95.79
42125;BME280;27787;44.594;11.046;2023-05-10T08:20:20;100580.66;;;16.74;95.44
42125;BME280;27787;44.594;11.046;2023-05-10T08:23:05;100573.03;;;16.53;95.49
42125;BME280;27787;44.594;11.046;2023-05-10T08:25:49;100577.06;;;16.31;97.95
42125;BME280;27787;44.594;11.046;2023-05-10T08:28:33;100579.09;;;16.16;99.12
42125;BME280;27787;44.594;11.046;2023-05-10T08:31:17;100583.53;;;16.17;97.76
42125;BME280;27787;44.594;11.046;2023-05-10T08:34:01;100590.69;;;16.12;97.94
42125;BME280;27787;44.594;11.046;2023-05-10T08:36:45;100590.09;;;15.97;97.98
42125;BME280;27787;44.594;11.046;2023-05-10T08:39:34;100586.03;;;15.76;99.78
42125;BME280;27787;44.594;11.046;2023-05-10T08:42:19;100589.84;;;15.59;100.00
42125;BME280;27787;44.594;11.046;2023-05-10T08:45:10;100590.06;;;15.43;100.00
42125;BME280;27787;44.594;11.046;2023-05-10T08:47:55;100589.28;;;15.38;100.00
42125;BME280;27787;44.594;11.046;2023-05-10T08:50:41;100590.94;;;15.43;100.00
42125;BME280;27787;44.594;11.046;2023-05-10T08:53:27;100589.19;;;15.42;100.00
42125;BME280;27787;44.594;11.046;2023-05-10T08:56:12;100593.66;;;15.40;100.00
42125;BME280;27787;44.594;11.046;2023-05-10T08:58:57;100599.16;;;15.28;100.00
42125;BME280;27787;44.594;11.046;2023-05-10T09:01:43;100601.00;;;15.24;100.00
42125;BME280;27787;44.594;11.046;2023-05-10T09:04:29;100600.13;;;15.22;100.00
42125;BME280;27787;44.594;11.046;2023-05-10T09:07:13;100603.66;;;15.24;100.00
42125;BME280;27787;44.594;11.046;2023-05-10T09:09:57;100601.06;;;15.18;100.00
42125;BME280;27787;44.594;11.046;2023-05-10T09:12:43;100601.34;;;14.97;100.00
42125;BME280;27787;44.594;11.046;2023-05-10T09:15:28;100597.06;;;14.88;100.00
42125;BME280;27787;44.594;11.046;2023-05-10T09:18:12;100599.72;;;14.87;100.00
42125;BME280;27787;44.594;11.046;2023-05-10T09:20:57;100606.84;;;14.86;100.00
42125;BME280;27787;44.594;11.046;2023-05-10T09:23:45;100611.22;;;14.89;100.00
42125;BME280;27787;44.594;11.046;2023-05-10T09:26:30;100605.84;;;14.92;100.00
42125;BME280;27787;44.594;11.046;2023-05-10T09:29:14;100609.44;;;14.89;100.00
42125;BME280;27787;44.594;11.046;2023-05-10T09:31:59;100620.13;;;14.83;100.00
42125;BME280;27787;44.594;11.046;2023-05-10T09:34:43;100617.66;;;14.68;100.00
42125;BME280;27787;44.594;11.046;2023-05-10T09:37:30;100624.84;;;14.58;100.00
42125;BME280;27787;44.594;11.046;2023-05-10T09:40:18;100625.88;;;14.48;100.00
42125;BME280;27787;44.594;11.046;2023-05-10T09:43:06;100633.03;;;14.38;100.00
42125;BME280;27787;44.594;11.046;2023-05-10T09:45:51;100634.91;;;14.27;100.00
42125;BME280;27787;44.594;11.046;2023-05-10T09:48:42;100640.25;;;14.23;100.00
42125;BME280;27787;44.594;11.046;2023-05-10T09:51:26;100643.00;;;14.13;100.00
42125;BME280;27787;44.594;11.046;2023-05-10T09:54:16;100638.66;;;14.02;100.00
42125;BME280;27787;44.594;11.046;2023-05-10T09:57:01;100648.47;;;13.97;100.00
42125;BME280;27787;44.594;11.046;2023-05-10T09:59:46;100648.47;;;13.92;100.00
42125;BME280;27787;44.594;11.046;2023-05-10T10:02:31;100650.25;;;13.92;100.00
42125;BME280;27787;44.594;11.046;2023-05-10T10:05:16;100647.59;;;13.92;100.00
42125;BME280;27787;44.594;11.046;2023-05-10T10:08:03;100652.97;;;13.84;100.00
42125;BME280;27787;44.594;11.046;2023-05-10T10:10:49;100653.94;;;13.74;100.00
42125;BME280;27787;44.594;11.046;2023-05-10T10:13:33;100660.19;;;13.68;100.00
42125;BME280;27787;44.594;11.046;2023-05-10T10:16:18;100658.44;;;13.67;100.00
42125;BME280;27787;44.594;11.046;2023-05-10T10:19:02;100667.25;;;13.66;100.00
42125;BME280;27787;44.594;11.046;2023-05-10T10:21:49;100669.97;;;13.54;100.00
42125;BME280;27787;44.594;11.046;2023-05-10T10:24:33;100671.78;;;13.49;100.00
42125;BME280;27787;44.594;11.046;2023-05-10T10:27:25;100682.44;;;13.44;100.00
42125;BME280;27787;44.594;11.046;2023-05-10T10:30:26;100683.31;;;13.43;100.00
42125;BME280;27787;44.594;11.046;2023-05-10T10:36:04;100681.56;;;13.38;100.00
42125;BME280;27787;44.594;11.046;2023-05-10T10:39:09;100686.00;;;13.36;100.00
42125;BME280;27787;44.594;11.046;2023-05-10T10:41:56;100676.31;;;13.25;100.00
42125;BME280;27787;44.594;11.046;2023-05-10T10:44:41;100682.56;;;13.20;100.00
42125;BME280;27787;44.594;11.046;2023-05-10T10:47:28;100690.50;;;13.15;100.00
42125;BME280;27787;44.594;11.046;2023-05-10T10:50:16;100686.09;;;13.16;100.00
42125;BME280;27787;44.594;11.046;2023-05-10T10:53:10;100690.47;;;13.14;100.00
42125;BME280;27787;44.594;11.046;2023-05-10T10:56:21;100687.88;;;13.18;100.00
42125;BME280;27787;44.594;11.046;2023-05-10T10:59:07;100686.09;;;13.20;100.00
42125;BME280;27787;44.594;11.046;2023-05-10T11:01:52;100694.00;;;13.14;100.00
42125;BME280;27787;44.594;11.046;2023-05-10T11:04:43;100687.84;;;13.12;100.00
42125;BME280;27787;44.594;11.046;2023-05-10T11:07:31;100686.94;;;13.15;100.00
42125;BME280;27787;44.594;11.046;2023-05-10T11:10:20;100685.19;;;13.15;100.00
42125;BME280;27787;44.594;11.046;2023-05-10T11:13:07;100694.03;;;13.20;100.00
42125;BME280;27787;44.594;11.046;2023-05-10T11:15:51;100692.28;;;13.19;100.00
42125;BME280;27787;44.594;11.046;2023-05-10T11:18:36;100692.25;;;13.16;100.00
42125;BME280;27787;44.594;11.046;2023-05-10T11:21:20;100694.06;;;13.07;100.00
42125;BME280;27787;44.594;11.046;2023-05-10T11:24:13;100694.06;;;13.05;100.00
42125;BME280;27787;44.594;11.046;2023-05-10T11:26:57;100689.66;;;13.06;100.00
42125;BME280;27787;44.594;11.046;2023-05-10T11:30:06;100691.41;;;13.05;100.00
42125;BME280;27787;44.594;11.046;2023-05-10T11:32:56;100692.28;;;13.07;100.00
42125;BME280;27787;44.594;11.046;2023-05-10T11:35:41;100701.13;;;13.06;100.00
42125;BME280;27787;44.594;11.046;2023-05-10T11:38:26;100701.13;;;13.06;100.00
42125;BME280;27787;44.594;11.046;2023-05-10T11:41:11;100701.13;;;13.06;100.00
42125;BME280;27787;44.594;11.046;2023-05-10T11:43:57;100698.47;;;13.09;100.00
42125;BME280;27787;44.594;11.046;2023-05-10T11:46:41;100702.84;;;13.13;100.00
42125;BME280;27787;44.594;11.046;2023-05-10T11:49:26;100700.22;;;13.12;100.00
42125;BME280;27787;44.594;11.046;2023-05-10T11:52:10;100696.69;;;13.08;100.00
42125;BME280;27787;44.594;11.046;2023-05-10T11:54:58;100703.75;;;13.11;100.00
42125;BME280;27787;44.594;11.046;2023-05-10T11:57:43;100707.31;;;13.08;100.00
42125;BME280;27787;44.594;11.046;2023-05-10T12:00:30;100700.22;;;13.12;100.00
42125;BME280;27787;44.594;11.046;2023-05-10T12:03:16;100707.28;;;13.11;100.00
42125;BME280;27787;44.594;11.046;2023-05-10T12:06:01;100695.81;;;13.15;100.00
42125;BME280;27787;44.594;11.046;2023-05-10T12:08:48;100706.41;;;13.15;100.00
42125;BME280;27787;44.594;11.046;2023-05-10T12:11:40;100704.63;;;13.13;100.00
42125;BME280;27787;44.594;11.046;2023-05-10T12:14:24;100700.22;;;13.18;100.00
42125;BME280;27787;44.594;11.046;2023-05-10T12:17:12;100700.19;;;13.15;100.00
42125;BME280;27787;44.594;11.046;2023-05-10T12:20:22;100701.09;;;13.17;100.00
42125;BME280;27787;44.594;11.046;2023-05-10T12:23:09;100700.22;;;13.21;100.00
42125;BME280;27787;44.594;11.046;2023-05-10T12:26:04;100701.94;;;13.28;100.00
42125;BME280;27787;44.594;11.046;2023-05-10T12:28:48;100699.28;;;13.26;100.00
42125;BME280;27787;44.594;11.046;2023-05-10T12:31:45;100691.38;;;13.22;100.00
42125;BME280;27787;44.594;11.046;2023-05-10T12:34:34;100695.78;;;13.21;100.00
42125;BME280;27787;44.594;11.046;2023-05-10T12:37:24;100695.81;;;13.20;100.00
42125;BME280;27787;44.594;11.046;2023-05-10T12:40:09;100689.63;;;13.21;100.00
42125;BME280;27787;44.594;11.046;2023-05-10T12:42:54;100690.44;;;13.27;100.00
42125;BME280;27787;44.594;11.046;2023-05-10T12:45:38;100694.00;;;13.30;100.00
42125;BME280;27787;44.594;11.046;2023-05-10T12:48:24;100692.19;;;13.35;100.00
42125;BME280;27787;44.594;11.046;2023-05-10T12:51:08;100690.44;;;13.35;100.00
42125;BME280;27787;44.594;11.046;2023-05-10T12:53:57;100679.81;;;13.37;100.00
42125;BME280;27787;44.594;11.046;2023-05-10T12:56:41;100689.53;;;13.38;100.00
42125;BME280;27787;44.594;11.046;2023-05-10T12:59:26;100683.34;;;13.42;100.00
42125;BME280;27787;44.594;11.046;2023-05-10T13:02:10;100683.31;;;13.45;100.00
42125;BME280;27787;44.594;11.046;2023-05-10T13:04:54;100680.59;;;13.54;100.00
42125;BME280;27787;44.594;11.046;2023-05-10T13:07:39;100679.72;;;13.52;100.00
42125;BME280;27787;44.594;11.046;2023-05-10T13:10:23;100675.31;;;13.55;100.00
42125;BME280;27787;44.594;11.046;2023-05-10T13:13:07;100667.31;;;13.60;100.00
42125;BME280;27787;44.594;11.046;2023-05-10T13:15:52;100667.31;;;13.57;100.00
42125;BME280;27787;44.594;11.046;2023-05-10T13:18:36;100665.56;;;13.56;100.00
42125;BME280;27787;44.594;11.046;2023-05-10T13:21:20;100670.88;;;13.53;100.00
42125;BME280;27787;44.594;11.046;2023-05-10T13:24:04;100663.78;;;13.56;100.00
42125;BME280;27787;44.594;11.046;2023-05-10T13:26:49;100663.78;;;13.60;100.00
42125;BME280;27787;44.594;11.046;2023-05-10T13:29:34;100646.09;;;13.57;100.00
42125;BME280;27787;44.594;11.046;2023-05-10T13:32:18;100652.31;;;13.53;100.00
42125;BME280;27787;44.594;11.046;2023-05-10T13:35:03;100651.41;;;13.57;100.00
42125;BME280;27787;44.594;11.046;2023-05-10T13:37:48;100651.38;;;13.60;100.00
42125;BME280;27787;44.594;11.046;2023-05-10T13:40:32;100640.75;;;13.62;100.00
42125;BME280;27787;44.594;11.046;2023-05-10T13:43:18;100644.28;;;13.62;100.00
42125;BME280;27787;44.594;11.046;2023-05-10T13:46:03;100645.16;;;13.69;100.00
42125;BME280;27787;44.594;11.046;2023-05-10T13:48:47;100638.94;;;13.67;100.00
42125;BME280;27787;44.594;11.046;2023-05-10T13:51:33;100642.53;;;13.63;100.00
42125;BME280;27787;44.594;11.046;2023-05-10T13:54:17;100637.22;;;13.61;100.00
42125;BME280;27787;44.594;11.046;2023-05-10T13:57:04;100639.00;;;13.62;100.00
42125;BME280;27787;44.594;11.046;2023-05-10T13:59:48;100646.94;;;13.64;100.00
42125;BME280;27787;44.594;11.046;2023-05-10T14:02:33;100636.38;;;13.59;100.00
42125;BME280;27787;44.594;11.046;2023-05-10T14:05:17;100639.88;;;13.61;100.00
42125;BME280;27787;44.594;11.046;2023-05-10T14:08:01;100635.50;;;13.58;100.00
42125;BME280;27787;44.594;11.046;2023-05-10T14:10:45;100628.44;;;13.57;100.00
42125;BME280;27787;44.594;11.046;2023-05-10T14:13:30;100630.19;;;13.57;100.00
42125;BME280;27787;44.594;11.046;2023-05-10T14:16:14;100623.97;;;13.60;100.00
42125;BME280;27787;44.594;11.046;2023-05-10T14:18:58;100619.50;;;13.65;100.00
42125;BME280;27787;44.594;11.046;2023-05-10T14:21:43;100627.44;;;13.66;100.00
42125;BME280;27787;44.594;11.046;2023-05-10T14:24:27;100628.34;;;13.65;100.00
42125;BME280;27787;44.594;11.046;2023-05-10T14:27:11;100619.50;;;13.66;100.00
42125;BME280;27787;44.594;11.046;2023-05-10T14:29:55;100623.91;;;13.72;100.00
42125;BME280;27787;44.594;11.046;2023-05-10T14:32:40;100612.41;;;13.70;100.00
42125;BME280;27787;44.594;11.046;2023-05-10T14:35:24;100620.38;;;13.67;100.00